createdAt,value
2019-04-22T14:57:43.714Z,20.80
2019-04-22T15:00:15.828Z,21.30
2019-04-22T15:02:47.828Z,22.60
2019-04-22T15:05:18.666Z,22.90
2019-04-22T15:07:50.276Z,22.50
2019-04-22T15:10:22.216Z,22.50
2019-04-22T15:12:56.364Z,21.70
2019-04-22T15:16:03.199Z,22.00
2019-04-22T15:18:46.713Z,20.50
2019-04-22T15:21:20.656Z,21.30
2019-04-22T15:23:51.035Z,22.00
2019-04-22T15:26:22.280Z,22.40
2019-04-22T15:28:53.513Z,23.50
2019-04-22T15:31:24.165Z,23.90
2019-04-22T15:33:54.461Z,24.90
2019-04-22T15:36:26.144Z,25.20
2019-04-22T15:38:57.610Z,25.70
2019-04-22T15:41:28.550Z,26.00
2019-04-22T15:43:59.695Z,26.00
2019-04-22T15:46:30.167Z,26.00
2019-04-22T15:49:00.434Z,26.10
2019-04-22T15:51:31.043Z,25.60
2019-04-22T15:54:01.642Z,25.70
2019-04-22T15:56:32.645Z,26.10
2019-04-22T15:59:15.656Z,26.60
2019-04-22T16:01:37.813Z,26.70
2019-04-22T16:04:08.265Z,26.80
2019-04-22T16:06:38.896Z,27.10
2019-04-22T16:09:11.176Z,27.20
2019-04-22T16:11:42.293Z,27.50
2019-04-22T16:14:15.183Z,27.40
2019-04-22T16:16:46.222Z,27.70
2019-04-22T16:19:17.036Z,28.00
2019-04-22T16:21:55.347Z,27.70
2019-04-22T16:24:38.187Z,27.40
2019-04-22T16:27:16.542Z,27.30
2019-04-22T16:29:47.457Z,27.80
2019-04-22T16:32:19.125Z,27.90
2019-04-22T16:34:49.957Z,28.30
2019-04-22T16:37:20.988Z,27.60
2019-04-22T16:39:52.341Z,27.50
2019-04-22T16:42:31.207Z,27.70
2019-04-22T16:44:55.478Z,27.80
2019-04-22T16:47:25.884Z,27.90
2019-04-22T16:49:57.444Z,27.90
2019-04-22T16:52:32.041Z,27.80
2019-04-22T16:55:03.490Z,27.90
2019-04-22T16:57:33.946Z,28.30
2019-04-22T17:00:04.789Z,28.30
2019-04-22T17:02:50.267Z,28.30
2019-04-22T17:05:38.153Z,28.30
2019-04-22T17:08:10.144Z,28.40
2019-04-22T17:10:41.829Z,28.40
2019-04-22T17:13:17.648Z,28.40
2019-04-22T17:15:45.135Z,28.90
2019-04-22T17:18:19.144Z,28.90
2019-04-22T17:20:50.795Z,28.60
2019-04-22T17:23:21.481Z,28.70
2019-04-22T17:25:52.499Z,28.60
2019-04-22T17:28:23.631Z,28.70
2019-04-22T17:30:54.100Z,28.40
2019-04-22T17:33:24.580Z,28.40
2019-04-22T17:35:55.099Z,28.40
2019-04-22T17:38:33.898Z,28.60
2019-04-22T17:41:11.367Z,28.20
2019-04-22T17:43:54.372Z,28.20
2019-04-22T17:46:40.402Z,28.30
2019-04-22T17:49:33.972Z,28.30
2019-04-22T17:52:16.947Z,28.40
2019-04-22T17:57:26.034Z,28.50
2019-04-22T17:59:53.720Z,28.70
2019-04-22T18:02:25.378Z,28.70
2019-04-22T18:04:46.864Z,28.80
2019-04-22T18:07:37.062Z,29.60
2019-04-22T18:15:11.455Z,28.80
2019-04-22T18:17:41.353Z,29.00
2019-04-22T18:20:07.139Z,28.90
2019-04-22T18:22:36.900Z,29.10
2019-04-22T18:25:07.731Z,28.90
2019-04-22T18:30:17.018Z,29.10
2019-04-22T18:32:50.637Z,29.30
2019-04-22T18:35:20.541Z,29.40
2019-04-22T18:37:53.471Z,29.50
2019-04-22T18:40:30.910Z,29.50
2019-04-22T18:43:06.269Z,29.50
2019-04-22T18:48:02.918Z,29.70
2019-04-22T18:50:53.620Z,29.80
2019-04-22T18:53:34.913Z,30.00
2019-04-22T18:56:16.619Z,29.80
2019-04-22T18:58:39.425Z,35.20
2019-04-22T19:00:57.804Z,40.10
2019-04-22T19:03:32.190Z,34.40
2019-04-22T19:06:31.855Z,41.80
2019-04-22T19:08:55.523Z,43.40
2019-04-22T19:11:27.159Z,38.90
2019-04-22T19:14:40.893Z,41.60
2019-04-22T19:16:36.959Z,39.50
2019-04-22T19:21:36.263Z,37.70
2019-04-22T19:24:07.331Z,36.90
2019-04-22T19:26:50.046Z,39.60
2019-04-22T19:29:16.086Z,36.40
2019-04-22T19:31:48.407Z,37.10
2019-04-22T19:34:16.178Z,36.50
2019-04-22T19:36:51.332Z,38.00
2019-04-22T19:39:19.246Z,34.80
2019-04-22T19:42:04.247Z,36.70
2019-04-22T19:44:29.153Z,33.10
2019-04-22T19:47:18.641Z,35.30
2019-04-22T19:49:38.406Z,37.90
2019-04-22T19:52:24.931Z,38.20
2019-04-22T19:54:37.733Z,38.30
2019-04-22T19:57:03.563Z,36.10
2019-04-22T19:59:42.574Z,35.40
2019-04-22T20:02:30.138Z,35.50
2019-04-22T20:05:23.194Z,37.40
2019-04-22T20:07:41.765Z,36.80
2019-04-22T20:10:22.415Z,38.20
2019-04-22T20:12:50.159Z,37.30
2019-04-22T20:15:22.719Z,35.40
2019-04-22T20:18:19.192Z,38.30
2019-04-22T20:20:32.996Z,34.70
2019-04-22T20:22:57.565Z,35.70
2019-04-22T20:25:33.305Z,35.80
2019-04-22T20:28:07.466Z,36.90
2019-04-22T20:30:39.876Z,35.30
2019-04-22T20:33:08.401Z,37.70
2019-04-22T20:35:43.499Z,34.20
2019-04-22T20:38:21.375Z,37.00
2019-04-22T20:40:50.526Z,36.20
2019-04-22T20:43:29.262Z,37.10
2019-04-22T20:45:57.701Z,37.60
2019-04-22T20:48:22.315Z,36.10
2019-04-22T20:50:58.115Z,35.60
2019-04-22T20:53:36.482Z,35.10
2019-04-22T20:56:05.600Z,36.40
2019-04-22T20:58:38.800Z,37.50
2019-04-22T21:00:59.582Z,36.80
2019-04-22T21:03:31.894Z,36.80
2019-04-22T21:06:07.339Z,36.10
2019-04-22T21:08:47.536Z,38.90
2019-04-22T21:13:54.268Z,35.80
2019-04-22T21:16:26.805Z,35.20
2019-04-22T21:18:52.659Z,35.70
2019-04-22T21:21:32.031Z,36.90
2019-04-22T21:23:58.313Z,37.70
2019-04-22T21:26:33.607Z,37.00
2019-04-22T21:29:07.163Z,36.30
2019-04-22T21:31:43.858Z,37.20
2019-04-22T21:34:10.265Z,35.20
2019-04-22T21:36:48.240Z,37.80
2019-04-22T21:39:15.575Z,37.90
2019-04-22T21:41:47.320Z,36.00
2019-04-22T21:44:18.448Z,37.10
2019-04-22T21:47:03.382Z,37.10
2019-04-22T21:49:29.666Z,37.00
2019-04-22T21:52:01.229Z,36.10
2019-04-22T21:54:31.645Z,35.50
2019-04-22T21:57:27.943Z,36.80
2019-04-22T22:00:09.747Z,38.10
2019-04-22T22:02:33.782Z,37.20
2019-04-22T22:04:55.177Z,36.20
2019-04-22T22:07:21.996Z,35.00
2019-04-22T22:10:12.290Z,36.30
2019-04-22T22:12:42.274Z,38.10
2019-04-22T22:15:16.184Z,38.10
2019-04-22T22:17:46.861Z,37.00
2019-04-22T22:20:14.660Z,37.50
2019-04-22T22:23:20.671Z,36.80
2019-04-22T22:25:23.667Z,38.10
2019-04-22T22:27:47.504Z,38.30
2019-04-22T22:33:05.458Z,35.80
2019-04-22T22:35:35.731Z,35.80
2019-04-22T22:38:02.786Z,37.80
2019-04-22T22:40:23.322Z,35.20
2019-04-22T22:42:53.439Z,35.10
2019-04-22T22:45:32.790Z,35.70
2019-04-22T22:48:21.870Z,35.80
2019-04-22T22:50:43.046Z,36.30
2019-04-22T22:53:29.118Z,36.00
2019-04-22T22:55:53.246Z,36.20
2019-04-22T22:58:27.460Z,36.10
2019-04-22T23:00:56.110Z,36.20
2019-04-22T23:03:48.336Z,36.20
2019-04-22T23:06:03.578Z,37.00
2019-04-22T23:08:38.530Z,36.60
2019-04-22T23:11:15.438Z,36.10
2019-04-22T23:13:42.636Z,36.30
2019-04-22T23:16:04.191Z,36.50
2019-04-22T23:18:23.782Z,36.30
2019-04-22T23:20:57.269Z,36.70
2019-04-22T23:23:44.059Z,36.60
2019-04-22T23:26:44.006Z,37.20
2019-04-22T23:32:04.434Z,36.10
2019-04-22T23:37:39.372Z,36.70
2019-04-22T23:40:17.353Z,37.00
2019-04-22T23:42:44.679Z,36.80
2019-04-22T23:45:25.518Z,37.30
2019-04-22T23:47:41.169Z,36.70
2019-04-22T23:50:24.405Z,37.60
2019-04-22T23:52:59.432Z,37.00
2019-04-22T23:55:32.804Z,37.50
2019-04-22T23:58:02.742Z,38.10
